createdAt,value
2017-08-05T00:00:51.225Z,0
2017-08-05T00:02:03.883Z,0
2017-08-05T00:03:15.814Z,0
2017-08-05T00:04:28.451Z,0
2017-08-05T00:05:40.707Z,0
2017-08-05T00:06:53.318Z,0
2017-08-05T00:08:05.303Z,0
2017-08-05T00:09:17.923Z,0
2017-08-05T00:10:30.767Z,0
2017-08-05T00:11:43.082Z,0
2017-08-05T00:12:55.349Z,0
2017-08-05T00:14:08.024Z,0
2017-08-05T00:15:20.015Z,0
2017-08-05T00:16:32.616Z,0
2017-08-05T00:17:45.259Z,0
2017-08-05T00:18:57.908Z,0
2017-08-05T00:20:10.174Z,0
2017-08-05T00:21:22.444Z,0
2017-08-05T00:22:35.070Z,0
2017-08-05T00:23:47.624Z,0
2017-08-05T00:25:00.157Z,0
2017-08-05T00:26:12.745Z,0
2017-08-05T00:27:25.309Z,0
2017-08-05T00:28:37.923Z,0
2017-08-05T00:29:50.533Z,0
2017-08-05T00:31:02.815Z,0
2017-08-05T00:32:15.383Z,0
2017-08-05T00:33:27.734Z,0
2017-08-05T00:34:40.275Z,0
2017-08-05T00:35:52.611Z,0
2017-08-05T00:37:04.569Z,0
2017-08-05T00:38:16.854Z,0
2017-08-05T00:39:29.440Z,0
2017-08-05T00:40:41.781Z,0
2017-08-05T00:41:54.353Z,0
2017-08-05T00:43:06.845Z,0
2017-08-05T00:44:19.133Z,0
2017-08-05T00:45:31.663Z,0
2017-08-05T00:46:44.259Z,0
2017-08-05T00:47:56.836Z,0
2017-08-05T00:49:09.150Z,0
2017-08-05T00:50:21.404Z,0
2017-08-05T00:51:34.003Z,0
2017-08-05T00:52:46.588Z,0
2017-08-05T00:53:59.237Z,0
2017-08-05T00:55:11.847Z,0
2017-08-05T00:56:24.102Z,0
2017-08-05T00:57:36.658Z,0
2017-08-05T00:58:48.984Z,0
2017-08-05T01:00:01.625Z,0
2017-08-05T01:01:14.191Z,0
2017-08-05T01:02:26.862Z,0
2017-08-05T01:03:39.495Z,0
2017-08-05T01:04:52.058Z,0
2017-08-05T01:06:04.327Z,0
2017-08-05T01:07:16.881Z,0
2017-08-05T01:08:29.540Z,0
2017-08-05T01:09:41.611Z,0
2017-08-05T01:10:54.208Z,0
2017-08-05T01:12:06.774Z,0
2017-08-05T01:13:19.050Z,0
2017-08-05T01:14:31.650Z,0
2017-08-05T01:15:43.996Z,0
2017-08-05T01:16:56.630Z,0
2017-08-05T01:18:09.230Z,0
2017-08-05T01:19:21.484Z,0
2017-08-05T01:20:34.025Z,0
2017-08-05T01:21:46.590Z,0
2017-08-05T01:22:59.211Z,0
2017-08-05T01:24:11.809Z,0
2017-08-05T01:25:24.083Z,0
2017-08-05T01:26:36.661Z,0
2017-08-05T01:27:49.270Z,0
2017-08-05T01:29:01.840Z,0
2017-08-05T01:30:14.114Z,0
2017-08-05T01:31:26.674Z,0
2017-08-05T01:32:38.993Z,0
2017-08-05T01:33:51.602Z,0
2017-08-05T01:35:04.225Z,0
2017-08-05T01:36:16.819Z,0
2017-08-05T01:37:29.394Z,0
2017-08-05T01:38:41.752Z,0
2017-08-05T01:39:54.359Z,0
2017-08-05T01:41:06.674Z,0
2017-08-05T01:42:19.252Z,0
2017-08-05T01:43:31.519Z,0
2017-08-05T01:44:43.441Z,0
2017-08-05T01:45:55.737Z,0
2017-08-05T01:47:08.306Z,0
2017-08-05T01:48:21.124Z,0
2017-08-05T01:49:33.748Z,0
2017-08-05T01:50:45.741Z,0
2017-08-05T01:51:58.021Z,0
2017-08-05T01:53:10.659Z,0
2017-08-05T01:54:23.229Z,0
2017-08-05T01:55:35.501Z,0
2017-08-05T01:56:47.778Z,0
2017-08-05T01:58:00.435Z,0
2017-08-05T01:59:13.018Z,0
2017-08-05T02:00:25.009Z,0
2017-08-05T02:01:37.599Z,0
2017-08-05T02:02:50.207Z,0
2017-08-05T02:04:02.514Z,0
2017-08-05T02:05:15.141Z,0
2017-08-05T02:06:26.842Z,0
2017-08-05T02:07:39.388Z,0
2017-08-05T02:08:51.981Z,0
2017-08-05T02:10:04.276Z,0
2017-08-05T02:11:16.900Z,0
2017-08-05T02:12:29.547Z,0
2017-08-05T02:13:42.164Z,0
2017-08-05T02:14:54.777Z,0
2017-08-05T02:16:07.388Z,0
2017-08-05T02:17:19.952Z,0
2017-08-05T02:18:32.148Z,0
2017-08-05T02:19:44.719Z,0
2017-08-05T02:20:57.600Z,0
2017-08-05T02:22:09.537Z,0
2017-08-05T02:23:21.804Z,0
2017-08-05T02:24:34.405Z,0
2017-08-05T02:25:46.704Z,0
2017-08-05T02:26:59.285Z,0
2017-08-05T02:28:11.847Z,0
2017-08-05T02:29:24.444Z,0
2017-08-05T02:30:36.705Z,0
2017-08-05T02:31:49.335Z,0
2017-08-05T02:33:01.919Z,0
2017-08-05T02:34:14.176Z,0
2017-08-05T02:35:26.729Z,0
2017-08-05T02:36:39.293Z,0
2017-08-05T02:37:51.900Z,0
2017-08-05T02:39:04.466Z,0
2017-08-05T02:40:16.813Z,0
2017-08-05T02:41:29.409Z,0
2017-08-05T02:42:42.023Z,0
2017-08-05T02:43:54.578Z,0
2017-08-05T02:45:07.109Z,0
2017-08-05T02:46:19.686Z,0
2017-08-05T02:47:32.310Z,0
2017-08-05T02:48:44.907Z,0
2017-08-05T02:49:57.454Z,0
2017-08-05T02:51:09.676Z,0
2017-08-05T02:52:22.008Z,0
2017-08-05T02:53:34.858Z,0
2017-08-05T02:54:47.475Z,0
2017-08-05T02:56:00.023Z,0
2017-08-05T02:57:12.544Z,0
2017-08-05T02:58:25.112Z,0
2017-08-05T02:59:37.640Z,0
2017-08-05T03:00:49.885Z,0
2017-08-05T03:02:02.454Z,0
2017-08-05T03:03:15.046Z,0
2017-08-05T03:04:27.646Z,0
2017-08-05T03:05:40.218Z,0
2017-08-05T03:06:52.262Z,0
2017-08-05T03:08:04.597Z,0
2017-08-05T03:09:17.287Z,0
2017-08-05T03:10:29.872Z,0
2017-08-05T03:11:42.476Z,0
2017-08-05T03:12:55.119Z,0
2017-08-05T03:14:07.095Z,0
2017-08-05T03:15:19.390Z,0
2017-08-05T03:16:31.641Z,0
2017-08-05T03:17:44.211Z,0
2017-08-05T03:18:56.510Z,0
2017-08-05T03:20:09.100Z,0
2017-08-05T03:21:21.639Z,0
2017-08-05T03:22:34.223Z,0
2017-08-05T03:23:46.508Z,0
2017-08-05T03:24:59.154Z,5
2017-08-05T03:26:11.994Z,5
2017-08-05T03:27:24.556Z,5
2017-08-05T03:28:37.139Z,5
2017-08-05T03:29:49.709Z,5
2017-08-05T03:31:02.304Z,5
2017-08-05T03:32:14.802Z,5
2017-08-05T03:33:27.370Z,10
2017-08-05T03:34:39.641Z,10
2017-08-05T03:35:52.185Z,10
2017-08-05T03:37:04.832Z,10
2017-08-05T03:38:17.379Z,10
2017-08-05T03:39:29.977Z,10
2017-08-05T03:40:42.575Z,15
2017-08-05T03:41:54.930Z,15
2017-08-05T03:43:07.245Z,15
2017-08-05T03:44:19.834Z,15
2017-08-05T03:45:32.410Z,20
2017-08-05T03:46:45.006Z,20
2017-08-05T03:47:57.569Z,20
2017-08-05T03:49:10.146Z,25
2017-08-05T03:50:22.455Z,25
2017-08-05T03:51:35.038Z,25
2017-08-05T03:52:47.346Z,25
2017-08-05T03:53:59.949Z,30
2017-08-05T03:55:11.631Z,30
2017-08-05T03:56:24.252Z,30
2017-08-05T03:57:36.815Z,35
2017-08-05T03:58:49.400Z,35
2017-08-05T04:00:02.006Z,35
2017-08-05T04:01:14.635Z,35
2017-08-05T04:02:27.276Z,40
2017-08-05T04:03:39.923Z,40
2017-08-05T04:04:52.566Z,40
2017-08-05T04:06:05.159Z,45
2017-08-05T04:07:17.741Z,45
2017-08-05T04:08:30.353Z,45
2017-08-05T04:09:42.954Z,50
2017-08-05T04:10:55.549Z,50
2017-08-05T04:12:08.164Z,50
2017-08-05T04:13:20.746Z,50
2017-08-05T04:14:33.579Z,55
2017-08-05T04:15:45.833Z,55
2017-08-05T04:16:58.428Z,55
2017-08-05T04:18:10.743Z,55
2017-08-05T04:19:23.350Z,60
2017-08-05T04:20:35.935Z,60
2017-08-05T04:21:48.216Z,60
2017-08-05T04:23:00.801Z,65
2017-08-05T04:24:13.414Z,65
2017-08-05T04:25:26.035Z,65
2017-08-05T04:26:38.589Z,70
2017-08-05T04:27:51.203Z,70
2017-08-05T04:29:03.471Z,70
2017-08-05T04:30:15.806Z,70
2017-08-05T04:31:28.062Z,70
2017-08-05T04:32:40.628Z,75
2017-08-05T04:33:53.289Z,75
2017-08-05T04:35:05.858Z,75
2017-08-05T04:36:17.822Z,80
2017-08-05T04:37:29.838Z,80
2017-08-05T04:38:42.098Z,80
2017-08-05T04:39:54.681Z,85
2017-08-05T04:41:06.940Z,85
2017-08-05T04:42:19.553Z,90
2017-08-05T04:43:32.111Z,90
2017-08-05T04:44:44.384Z,90
2017-08-05T04:45:56.991Z,95
2017-08-05T04:47:09.595Z,95
2017-08-05T04:48:22.182Z,95
2017-08-05T04:49:34.168Z,100
2017-08-05T04:50:46.782Z,100
2017-08-05T04:51:59.358Z,100
2017-08-05T04:53:11.585Z,105
2017-08-05T04:54:23.898Z,105
2017-08-05T04:55:36.491Z,105
2017-08-05T04:56:48.992Z,105
2017-08-05T04:58:01.595Z,110
2017-08-05T04:59:14.235Z,110
2017-08-05T05:00:26.825Z,110
2017-08-05T05:01:39.073Z,115
2017-08-05T05:02:51.630Z,115
2017-08-05T05:04:04.231Z,120
2017-08-05T05:05:16.883Z,125
2017-08-05T05:06:29.382Z,130
2017-08-05T05:07:41.980Z,130
2017-08-05T05:08:54.595Z,135
2017-08-05T05:10:06.842Z,135
2017-08-05T05:11:19.179Z,135
2017-08-05T05:12:31.786Z,135
2017-08-05T05:13:44.410Z,135
2017-08-05T05:14:56.961Z,135
2017-08-05T05:16:09.273Z,135
2017-08-05T05:17:21.870Z,140
2017-08-05T05:18:34.137Z,140
2017-08-05T05:19:46.727Z,145
2017-08-05T05:20:59.308Z,150
2017-08-05T05:22:11.530Z,155
2017-08-05T05:23:24.147Z,155
2017-08-05T05:24:36.699Z,155
2017-08-05T05:25:49.379Z,155
2017-08-05T05:27:01.383Z,155
2017-08-05T05:28:13.367Z,155
2017-08-05T05:29:25.677Z,155
2017-08-05T05:30:37.899Z,155
2017-08-05T05:31:50.510Z,155
2017-08-05T05:33:02.779Z,155
2017-08-05T05:34:15.113Z,155
2017-08-05T05:35:27.768Z,160
2017-08-05T05:36:40.376Z,160
2017-08-05T05:37:52.956Z,155
2017-08-05T05:39:05.542Z,155
2017-08-05T05:40:18.180Z,160
2017-08-05T05:41:30.402Z,160
2017-08-05T05:42:42.980Z,165
2017-08-05T05:43:55.558Z,165
2017-08-05T05:45:08.254Z,170
2017-08-05T05:46:20.844Z,175
2017-08-05T05:47:33.090Z,175
2017-08-05T05:48:45.684Z,180
2017-08-05T05:49:58.274Z,180
2017-08-05T05:51:10.577Z,185
2017-08-05T05:52:23.456Z,190
2017-08-05T05:53:36.020Z,180
2017-08-05T05:54:48.625Z,185
2017-08-05T05:56:00.939Z,195
2017-08-05T05:57:13.239Z,205
2017-08-05T05:58:25.517Z,210
2017-08-05T05:59:37.810Z,205
2017-08-05T06:00:50.159Z,205
2017-08-05T06:02:02.470Z,220
2017-08-05T06:03:14.739Z,245
2017-08-05T06:04:27.361Z,310
2017-08-05T06:05:39.954Z,425
2017-08-05T06:06:52.212Z,525
2017-08-05T06:08:04.546Z,385
2017-08-05T06:09:16.857Z,235
2017-08-05T06:10:29.442Z,190
2017-08-05T06:11:42.113Z,220
2017-08-05T06:12:54.778Z,210
2017-08-05T06:14:07.377Z,255
2017-08-05T06:15:19.693Z,250
2017-08-05T06:16:31.968Z,260
2017-08-05T06:17:44.544Z,275
2017-08-05T06:18:56.887Z,295
2017-08-05T06:20:09.180Z,330
2017-08-05T06:21:21.468Z,325
2017-08-05T06:22:34.024Z,350
2017-08-05T06:23:46.616Z,390
2017-08-05T06:24:58.889Z,520
2017-08-05T06:26:11.192Z,535
2017-08-05T06:27:23.466Z,470
2017-08-05T06:28:36.079Z,420
2017-08-05T06:29:48.359Z,355
2017-08-05T06:31:00.919Z,655
2017-08-05T06:32:13.538Z,635
2017-08-05T06:33:26.105Z,790
2017-08-05T06:34:38.416Z,840
2017-08-05T06:35:50.992Z,880
2017-08-05T06:37:03.297Z,910
2017-08-05T06:38:15.579Z,910
2017-08-05T06:39:28.181Z,915
2017-08-05T06:40:40.742Z,920
2017-08-05T06:41:53.248Z,925
2017-08-05T06:43:05.487Z,905
2017-08-05T06:44:17.830Z,880
2017-08-05T06:45:30.136Z,835
2017-08-05T06:46:42.814Z,820
2017-08-05T06:47:55.419Z,825
2017-08-05T06:49:08.059Z,900
2017-08-05T06:50:20.353Z,930
2017-08-05T06:51:32.976Z,920
2017-08-05T06:52:45.570Z,925
2017-08-05T06:53:58.143Z,955
2017-08-05T06:55:10.453Z,960
2017-08-05T06:56:22.989Z,955
2017-08-05T06:57:35.578Z,915
2017-08-05T06:58:48.123Z,880
2017-08-05T07:00:00.655Z,885
2017-08-05T07:01:13.271Z,885
2017-08-05T07:02:25.610Z,900
2017-08-05T07:03:38.183Z,890
2017-08-05T07:04:50.781Z,915
2017-08-05T07:06:03.031Z,940
2017-08-05T07:07:15.700Z,935
2017-08-05T07:08:27.672Z,980
2017-08-05T07:09:40.297Z,1000
2017-08-05T07:10:52.918Z,1010
2017-08-05T07:12:05.203Z,1005
2017-08-05T07:13:17.875Z,1050
2017-08-05T07:14:30.520Z,1025
2017-08-05T07:15:42.747Z,1045
2017-08-05T07:16:55.369Z,1055
2017-08-05T07:18:07.369Z,1095
2017-08-05T07:19:20.058Z,1125
2017-08-05T07:20:32.478Z,1155
2017-08-05T07:21:44.444Z,1160
2017-08-05T07:22:56.768Z,1190
2017-08-05T07:24:09.301Z,1180
2017-08-05T07:25:22.146Z,1225
2017-08-05T07:26:34.742Z,1255
2017-08-05T07:27:47.351Z,1285
2017-08-05T07:28:59.964Z,1290
2017-08-05T07:30:12.603Z,1280
2017-08-05T07:31:25.199Z,1355
2017-08-05T07:32:37.785Z,1470
2017-08-05T07:33:50.356Z,1485
2017-08-05T07:35:02.994Z,1495
2017-08-05T07:36:15.235Z,1475
2017-08-05T07:37:27.869Z,1475
2017-08-05T07:38:40.137Z,1440
2017-08-05T07:39:52.758Z,1490
2017-08-05T07:41:05.464Z,1420
2017-08-05T07:42:18.055Z,1350
2017-08-05T07:43:30.625Z,1405
2017-08-05T07:44:42.694Z,1415
2017-08-05T07:45:55.267Z,1395
2017-08-05T07:47:07.760Z,1495
2017-08-05T07:48:20.307Z,1490
2017-08-05T07:49:32.902Z,1530
2017-08-05T07:50:45.508Z,1570
2017-08-05T07:51:58.149Z,1660
2017-08-05T07:53:10.490Z,1615
2017-08-05T07:54:22.816Z,1625
2017-08-05T07:55:35.464Z,1580
2017-08-05T07:56:47.777Z,1605
2017-08-05T07:58:00.348Z,1645
2017-08-05T07:59:12.661Z,1675
2017-08-05T08:00:25.004Z,1735
2017-08-05T08:01:37.594Z,1685
2017-08-05T08:02:49.935Z,1760
2017-08-05T08:04:02.537Z,1795
2017-08-05T08:05:15.179Z,1715
2017-08-05T08:06:27.498Z,1795
2017-08-05T08:07:40.108Z,1835
2017-08-05T08:08:52.734Z,1800
2017-08-05T08:10:04.712Z,1795
2017-08-05T08:11:17.031Z,1850
2017-08-05T08:12:29.659Z,1920
2017-08-05T08:13:42.045Z,2035
2017-08-05T08:14:54.619Z,1945
2017-08-05T08:16:07.241Z,1880
2017-08-05T08:17:19.569Z,1935
2017-08-05T08:18:32.203Z,1990
2017-08-05T08:19:45.091Z,1830
2017-08-05T08:20:57.403Z,955
2017-08-05T08:22:09.967Z,305
2017-08-05T08:23:21.962Z,310
2017-08-05T08:24:34.590Z,340
2017-08-05T08:25:47.208Z,440
2017-08-05T08:26:59.501Z,585
2017-08-05T08:28:12.133Z,740
2017-08-05T08:29:24.421Z,900
2017-08-05T08:30:36.675Z,945
2017-08-05T08:31:48.974Z,1015
2017-08-05T08:33:01.015Z,1020
2017-08-05T08:34:13.356Z,915
2017-08-05T08:35:25.974Z,790
2017-08-05T08:36:38.267Z,690
2017-08-05T08:37:50.593Z,685
2017-08-05T08:39:02.896Z,655
2017-08-05T08:40:15.262Z,785
2017-08-05T08:41:28.113Z,970
2017-08-05T08:42:40.764Z,1065
2017-08-05T08:43:53.110Z,1075
2017-08-05T08:45:05.390Z,1140
2017-08-05T08:46:17.703Z,1190
2017-08-05T08:47:30.024Z,1165
2017-08-05T08:48:42.616Z,1120
2017-08-05T08:49:54.906Z,1105
2017-08-05T08:51:07.511Z,1125
2017-08-05T08:52:19.467Z,1110
2017-08-05T08:53:32.060Z,1115
2017-08-05T08:54:44.641Z,1115
2017-08-05T08:55:57.226Z,1130
2017-08-05T08:57:09.450Z,1025
2017-08-05T08:58:22.079Z,930
2017-08-05T08:59:34.626Z,965
2017-08-05T09:00:47.318Z,1105
2017-08-05T09:01:59.660Z,1090
2017-08-05T09:03:11.858Z,1155
2017-08-05T09:04:24.516Z,1210
2017-08-05T09:05:37.071Z,1260
2017-08-05T09:06:49.403Z,1215
2017-08-05T09:08:02.014Z,1155
2017-08-05T09:09:14.611Z,1120
2017-08-05T09:10:27.232Z,1090
2017-08-05T09:11:39.855Z,1090
2017-08-05T09:12:52.496Z,1020
2017-08-05T09:14:05.079Z,1005
2017-08-05T09:15:17.074Z,900
2017-08-05T09:16:29.485Z,835
2017-08-05T09:17:41.490Z,920
2017-08-05T09:18:54.128Z,810
2017-08-05T09:20:06.432Z,820
2017-08-05T09:21:19.003Z,870
2017-08-05T09:22:31.036Z,1050
2017-08-05T09:23:43.638Z,1230
2017-08-05T09:24:56.303Z,1375
2017-08-05T09:26:08.901Z,1485
2017-08-05T09:27:21.472Z,1245
2017-08-05T09:28:33.744Z,1120
2017-08-05T09:29:46.443Z,1100
2017-08-05T09:30:59.061Z,1120
2017-08-05T09:32:11.654Z,1165
2017-08-05T09:33:24.189Z,1155
2017-08-05T09:34:36.837Z,1200
2017-08-05T09:35:49.141Z,1240
2017-08-05T09:37:01.740Z,1275
2017-08-05T09:38:14.063Z,1235
2017-08-05T09:39:26.707Z,1240
2017-08-05T09:40:38.712Z,1355
2017-08-05T09:41:51.298Z,1250
2017-08-05T09:43:03.900Z,1150
2017-08-05T09:44:16.529Z,1195
2017-08-05T09:45:29.138Z,1420
2017-08-05T09:46:41.082Z,1505
2017-08-05T09:47:53.357Z,1350
2017-08-05T09:49:05.690Z,1750
2017-08-05T09:50:17.944Z,1015
2017-08-05T09:51:30.576Z,1045
2017-08-05T09:52:42.841Z,2070
2017-08-05T09:53:55.410Z,1490
2017-08-05T09:55:07.377Z,1315
2017-08-05T09:56:19.680Z,1040
2017-08-05T09:57:32.282Z,1235
2017-08-05T09:58:44.941Z,1335
2017-08-05T09:59:57.563Z,1025
2017-08-05T10:01:10.132Z,1110
2017-08-05T10:02:22.758Z,1105
2017-08-05T10:03:35.049Z,1210
2017-08-05T10:04:47.629Z,1275
2017-08-05T10:06:00.192Z,1255
2017-08-05T10:07:12.462Z,1225
2017-08-05T10:08:25.059Z,1265
2017-08-05T10:09:37.703Z,1220
2017-08-05T10:10:50.308Z,1110
2017-08-05T10:12:02.912Z,1190
2017-08-05T10:13:15.557Z,1185
2017-08-05T10:14:28.302Z,1185
2017-08-05T10:15:40.961Z,1135
2017-08-05T10:16:53.561Z,1010
2017-08-05T10:18:06.123Z,945
2017-08-05T10:19:18.172Z,840
2017-08-05T10:20:30.468Z,765
2017-08-05T10:21:42.823Z,640
2017-08-05T10:22:55.393Z,620
2017-08-05T10:24:07.705Z,595
2017-08-05T10:25:20.017Z,540
2017-08-05T10:26:32.629Z,530
2017-08-05T10:27:45.270Z,575
2017-08-05T10:28:56.980Z,605
2017-08-05T10:30:09.008Z,570
2017-08-05T10:31:21.607Z,535
2017-08-05T10:32:33.937Z,525
2017-08-05T10:33:46.584Z,585
2017-08-05T10:34:58.605Z,695
2017-08-05T10:36:11.237Z,670
2017-08-05T10:37:23.850Z,610
2017-08-05T10:38:36.448Z,560
2017-08-05T10:39:49.053Z,550
2017-08-05T10:41:01.322Z,525
2017-08-05T10:42:13.635Z,460
2017-08-05T10:43:26.193Z,420
2017-08-05T10:44:38.765Z,430
2017-08-05T10:45:51.380Z,470
2017-08-05T10:47:03.342Z,495
2017-08-05T10:48:15.939Z,510
2017-08-05T10:49:28.225Z,535
2017-08-05T10:50:40.800Z,605
2017-08-05T10:51:53.413Z,630
2017-08-05T10:53:05.810Z,660
2017-08-05T10:54:18.129Z,705
2017-08-05T10:55:30.740Z,720
2017-08-05T10:56:43.385Z,680
2017-08-05T10:57:55.655Z,640
2017-08-05T10:59:07.623Z,600
2017-08-05T11:00:19.668Z,545
2017-08-05T11:01:32.281Z,525
2017-08-05T11:02:44.890Z,515
2017-08-05T11:03:57.536Z,515
2017-08-05T11:05:09.539Z,445
2017-08-05T11:06:22.140Z,325
2017-08-05T11:07:34.441Z,235
2017-08-05T11:08:46.755Z,215
2017-08-05T11:09:59.055Z,235
2017-08-05T11:11:11.637Z,230
2017-08-05T11:12:23.897Z,240
2017-08-05T11:13:36.261Z,280
2017-08-05T11:14:48.545Z,325
2017-08-05T11:16:00.877Z,345
2017-08-05T11:17:13.516Z,315
2017-08-05T11:18:26.099Z,280
2017-08-05T11:19:38.377Z,255
2017-08-05T11:20:50.967Z,255
2017-08-05T11:22:03.556Z,275
2017-08-05T11:23:15.505Z,300
2017-08-05T11:24:27.753Z,325
2017-08-05T11:25:40.101Z,335
2017-08-05T11:26:52.677Z,345
2017-08-05T11:28:05.238Z,335
2017-08-05T11:29:17.218Z,310
2017-08-05T11:30:29.153Z,300
2017-08-05T11:31:41.699Z,285
2017-08-05T11:32:54.300Z,285
2017-08-05T11:34:06.849Z,345
2017-08-05T11:35:19.097Z,505
2017-08-05T11:36:30.836Z,655
2017-08-05T11:37:43.433Z,595
2017-08-05T11:38:56.042Z,500
2017-08-05T11:40:08.378Z,470
2017-08-05T11:41:20.918Z,510
2017-08-05T11:42:33.494Z,540
2017-08-05T11:43:46.137Z,540
2017-08-05T11:44:58.111Z,555
2017-08-05T11:46:10.788Z,635
2017-08-05T11:47:23.084Z,685
2017-08-05T11:48:35.671Z,660
2017-08-05T11:49:48.212Z,660
2017-08-05T11:51:00.784Z,655
2017-08-05T11:52:13.128Z,685
2017-08-05T11:53:25.751Z,710
2017-08-05T11:54:38.048Z,765
2017-08-05T11:55:50.635Z,785
2017-08-05T11:57:02.614Z,805
2017-08-05T11:58:14.871Z,775
2017-08-05T11:59:27.505Z,735
2017-08-05T12:00:39.780Z,705
2017-08-05T12:01:52.334Z,655
2017-08-05T12:03:04.926Z,670
2017-08-05T12:04:16.865Z,845
2017-08-05T12:05:29.134Z,1220
2017-08-05T12:06:41.773Z,1580
2017-08-05T12:07:54.352Z,1165
2017-08-05T12:09:06.928Z,1000
2017-08-05T12:10:19.218Z,855
2017-08-05T12:11:31.567Z,790
2017-08-05T12:12:44.189Z,720
2017-08-05T12:13:56.818Z,685
2017-08-05T12:15:09.160Z,655
2017-08-05T12:16:21.798Z,660
2017-08-05T12:17:34.087Z,670
2017-08-05T12:18:46.688Z,620
2017-08-05T12:19:58.987Z,610
2017-08-05T12:21:11.532Z,590
2017-08-05T12:22:24.119Z,555
2017-08-05T12:23:36.424Z,540
2017-08-05T12:24:48.698Z,545
2017-08-05T12:26:00.972Z,570
2017-08-05T12:27:13.564Z,660
2017-08-05T12:28:26.135Z,930
2017-08-05T12:29:38.757Z,1395
2017-08-05T12:30:51.386Z,2535
2017-08-05T12:32:03.650Z,2190
2017-08-05T12:33:15.959Z,2820
2017-08-05T12:34:28.536Z,2020
2017-08-05T12:35:40.869Z,1485
2017-08-05T12:36:53.505Z,1235
2017-08-05T12:38:05.761Z,1130
2017-08-05T12:39:18.375Z,1090
2017-08-05T12:40:30.903Z,1000
2017-08-05T12:41:43.495Z,795
2017-08-05T12:42:56.108Z,695
2017-08-05T12:44:08.372Z,595
2017-08-05T12:45:20.974Z,515
2017-08-05T12:46:33.228Z,450
2017-08-05T12:47:45.869Z,410
2017-08-05T12:48:58.440Z,340
2017-08-05T12:50:10.783Z,240
2017-08-05T12:51:23.010Z,240
2017-08-05T12:52:35.669Z,260
2017-08-05T12:53:48.239Z,290
2017-08-05T12:55:00.798Z,490
2017-08-05T12:56:13.417Z,715
2017-08-05T12:57:26.063Z,1095
2017-08-05T12:58:38.717Z,1060
2017-08-05T12:59:51.028Z,915
2017-08-05T13:01:03.358Z,1020
2017-08-05T13:02:15.942Z,1150
2017-08-05T13:03:28.246Z,1000
2017-08-05T13:04:40.235Z,885
2017-08-05T13:05:52.766Z,785
2017-08-05T13:07:05.095Z,710
2017-08-05T13:08:17.375Z,665
2017-08-05T13:09:29.662Z,725
2017-08-05T13:10:41.972Z,875
2017-08-05T13:11:54.539Z,885
2017-08-05T13:13:06.804Z,680
2017-08-05T13:14:18.545Z,630
2017-08-05T13:15:31.130Z,655
2017-08-05T13:16:43.769Z,605
2017-08-05T13:17:56.340Z,560
2017-08-05T13:19:09.000Z,555
2017-08-05T13:20:21.275Z,650
2017-08-05T13:21:33.919Z,680
2017-08-05T13:22:46.237Z,695
2017-08-05T13:23:58.481Z,670
2017-08-05T13:25:11.043Z,550
2017-08-05T13:26:23.288Z,485
2017-08-05T13:27:35.844Z,515
2017-08-05T13:28:48.471Z,550
2017-08-05T13:30:00.700Z,485
2017-08-05T13:31:13.301Z,535
2017-08-05T13:32:25.944Z,540
2017-08-05T13:33:38.511Z,395
2017-08-05T13:34:51.058Z,315
2017-08-05T13:36:03.644Z,265
2017-08-05T13:37:15.977Z,245
2017-08-05T13:38:28.260Z,215
2017-08-05T13:39:40.570Z,195
2017-08-05T13:40:53.181Z,215
2017-08-05T13:42:05.765Z,230
2017-08-05T13:43:18.362Z,305
2017-08-05T13:44:30.967Z,365
2017-08-05T13:45:43.235Z,360
2017-08-05T13:46:55.854Z,325
2017-08-05T13:48:07.839Z,255
2017-08-05T13:49:19.794Z,225
2017-08-05T13:50:32.391Z,195
2017-08-05T13:51:44.952Z,150
2017-08-05T13:52:56.933Z,130
2017-08-05T13:54:09.217Z,130
2017-08-05T13:55:21.767Z,110
2017-08-05T13:56:34.084Z,110
2017-08-05T13:57:46.330Z,110
2017-08-05T13:58:58.934Z,110
2017-08-05T14:00:11.248Z,105
2017-08-05T14:01:23.569Z,110
2017-08-05T14:02:35.852Z,115
2017-08-05T14:03:48.441Z,120
2017-08-05T14:05:01.037Z,110
2017-08-05T14:06:13.333Z,95
2017-08-05T14:07:25.980Z,130
2017-08-05T14:08:38.571Z,215
2017-08-05T14:09:51.198Z,265
2017-08-05T14:11:03.815Z,300
2017-08-05T14:12:16.334Z,325
2017-08-05T14:13:28.930Z,320
2017-08-05T14:14:40.874Z,335
2017-08-05T14:15:53.456Z,340
2017-08-05T14:17:05.758Z,325
2017-08-05T14:18:18.318Z,325
2017-08-05T14:19:30.632Z,325
2017-08-05T14:20:42.902Z,320
2017-08-05T14:21:55.515Z,340
2017-08-05T14:23:07.824Z,335
2017-08-05T14:24:20.407Z,310
2017-08-05T14:25:33.039Z,275
2017-08-05T14:26:45.308Z,215
2017-08-05T14:27:57.904Z,165
2017-08-05T14:29:10.518Z,145
2017-08-05T14:30:23.145Z,110
2017-08-05T14:31:35.468Z,90
2017-08-05T14:32:48.063Z,95
2017-08-05T14:34:00.382Z,95
2017-08-05T14:35:12.659Z,105
2017-08-05T14:36:25.006Z,120
2017-08-05T14:37:37.573Z,210
2017-08-05T14:38:50.183Z,290
2017-08-05T14:40:02.815Z,335
2017-08-05T14:41:15.089Z,355
2017-08-05T14:42:27.378Z,380
2017-08-05T14:43:39.629Z,415
2017-08-05T14:44:52.234Z,520
2017-08-05T14:46:04.871Z,650
2017-08-05T14:47:17.415Z,780
2017-08-05T14:48:29.368Z,840
2017-08-05T14:49:41.933Z,675
2017-08-05T14:50:54.205Z,535
2017-08-05T14:52:06.782Z,520
2017-08-05T14:53:19.419Z,550
2017-08-05T14:54:31.766Z,540
2017-08-05T14:55:44.359Z,505
2017-08-05T14:56:56.367Z,505
2017-08-05T14:58:08.951Z,550
2017-08-05T14:59:21.582Z,565
2017-08-05T15:00:34.204Z,550
2017-08-05T15:01:47.096Z,500
2017-08-05T15:02:59.385Z,405
2017-08-05T15:04:11.962Z,305
2017-08-05T15:05:24.576Z,235
2017-08-05T15:06:36.522Z,225
2017-08-05T15:07:49.149Z,250
2017-08-05T15:09:01.744Z,305
2017-08-05T15:10:13.992Z,330
2017-08-05T15:11:26.334Z,320
2017-08-05T15:12:38.651Z,290
2017-08-05T15:13:50.930Z,240
2017-08-05T15:15:03.531Z,225
2017-08-05T15:16:15.789Z,240
2017-08-05T15:17:28.066Z,250
2017-08-05T15:18:40.669Z,275
2017-08-05T15:19:52.953Z,335
2017-08-05T15:21:05.501Z,375
2017-08-05T15:22:18.000Z,365
2017-08-05T15:23:30.540Z,345
2017-08-05T15:24:43.091Z,320
2017-08-05T15:25:55.425Z,320
2017-08-05T15:27:07.940Z,325
2017-08-05T15:28:20.305Z,335
2017-08-05T15:29:32.961Z,350
2017-08-05T15:30:45.616Z,335
2017-08-05T15:31:58.193Z,310
2017-08-05T15:33:10.784Z,310
2017-08-05T15:34:23.109Z,300
2017-08-05T15:35:35.713Z,290
2017-08-05T15:36:48.377Z,280
2017-08-05T15:38:00.652Z,250
2017-08-05T15:39:12.954Z,235
2017-08-05T15:40:25.535Z,275
2017-08-05T15:41:38.130Z,295
2017-08-05T15:42:50.700Z,305
2017-08-05T15:44:03.295Z,280
2017-08-05T15:45:16.170Z,250
2017-08-05T15:46:28.469Z,225
2017-08-05T15:47:40.695Z,195
2017-08-05T15:48:53.304Z,180
2017-08-05T15:50:05.928Z,180
2017-08-05T15:51:18.235Z,195
2017-08-05T15:52:30.834Z,205
2017-08-05T15:53:43.130Z,230
2017-08-05T15:54:54.820Z,275
2017-08-05T15:56:06.782Z,310
2017-08-05T15:57:19.049Z,295
2017-08-05T15:58:31.399Z,300
2017-08-05T15:59:43.335Z,290
2017-08-05T16:00:55.948Z,295
2017-08-05T16:02:08.552Z,300
2017-08-05T16:03:20.885Z,330
2017-08-05T16:04:33.163Z,350
2017-08-05T16:05:45.822Z,350
2017-08-05T16:06:58.423Z,305
2017-08-05T16:08:11.092Z,285
2017-08-05T16:09:23.670Z,280
2017-08-05T16:10:36.265Z,280
2017-08-05T16:11:48.528Z,305
2017-08-05T16:13:01.073Z,320
2017-08-05T16:14:13.358Z,305
2017-08-05T16:15:25.396Z,280
2017-08-05T16:16:37.436Z,250
2017-08-05T16:17:50.012Z,225
2017-08-05T16:19:02.570Z,205
2017-08-05T16:20:15.178Z,190
2017-08-05T16:21:27.839Z,190
2017-08-05T16:22:40.402Z,215
2017-08-05T16:23:52.966Z,240
2017-08-05T16:25:05.220Z,250
2017-08-05T16:26:17.870Z,255
2017-08-05T16:27:30.476Z,235
2017-08-05T16:28:43.046Z,235
2017-08-05T16:29:55.652Z,250
2017-08-05T16:31:07.678Z,260
2017-08-05T16:32:19.882Z,260
2017-08-05T16:33:32.428Z,250
2017-08-05T16:34:44.997Z,230
2017-08-05T16:35:57.600Z,220
2017-08-05T16:37:10.254Z,240
2017-08-05T16:38:22.811Z,270
2017-08-05T16:39:35.104Z,280
2017-08-05T16:40:47.329Z,265
2017-08-05T16:41:59.949Z,265
2017-08-05T16:43:12.546Z,280
2017-08-05T16:44:25.167Z,290
2017-08-05T16:45:37.436Z,290
2017-08-05T16:46:50.033Z,280
2017-08-05T16:48:02.330Z,280
2017-08-05T16:49:14.952Z,270